Time;durP1;ratioP1;P1;durP2;ratioP2;P2;SDS_P1;SDS_P2;PMS_P1;PMS_P2;Temp;Humidity;BMP_temperature;BMP_pressure;BME280_temperature;BME280_humidity;BME280_pressure;Samples;Min_cycle;Max_cycle;Signal;HPM_P1;HPM_P2
2022/01/22 00:00:53;;;;;;;29.88;3.17;;;;;;;;;;5040045;28;20042;-62
2022/01/22 00:03:19;;;;;;;25.08;3.55;;;;;;;;;;5007958;28;20088;-62
2022/01/22 00:05:46;;;;;;;30.67;3.25;;;;;;;;;;5006906;28;20510;-63
2022/01/22 00:08:12;;;;;;;26.05;3.35;;;;;;;;;;5008191;28;20050;-63
2022/01/22 00:10:41;;;;;;;32.55;3.35;;;;;;;;;;5007645;28;20077;-63
2022/01/22 00:14:23;;;;;;;28.75;3.30;;;;;;;;;;4974659;28;20037;-65
2022/01/22 00:15:54;;;;;;;32.00;3.03;;;;;;;;;;5006046;28;20050;-62
2022/01/22 00:18:20;;;;;;;30.83;2.60;;;;;;;;;;5005625;28;20172;-62
2022/01/22 00:20:47;;;;;;;27.88;2.50;;;;;;;;;;5023286;28;20390;-63
2022/01/22 00:23:15;;;;;;;31.35;2.55;;;;;;;;;;5006400;28;20049;-62
2022/01/22 00:25:42;;;;;;;35.58;2.53;;;;;;;;;;5007597;28;20395;-62
2022/01/22 00:28:09;;;;;;;33.10;2.75;;;;;;;;;;5006034;28;20491;-61
2022/01/22 00:30:35;;;;;;;25.98;3.42;;;;;;;;;;5004402;28;20050;-61
2022/01/22 00:33:01;;;;;;;32.70;3.78;;;;;;;;;;5039793;28;20081;-62
2022/01/22 00:35:28;;;;;;;32.25;5.30;;;;;;;;;;5042958;28;20046;-62
2022/01/22 00:37:54;;;;;;;39.38;5.82;;;;;;;;;;4993794;28;20518;-61
2022/01/22 00:40:21;;;;;;;31.17;5.15;;;;;;;;;;5011320;28;20086;-61
2022/01/22 00:42:48;;;;;;;28.27;4.55;;;;;;;;;;5044473;28;20049;-62
2022/01/22 00:45:14;;;;;;;32.13;4.00;;;;;;;;;;5011277;28;20046;-61
2022/01/22 00:47:41;;;;;;;30.25;4.38;;;;;;;;;;5009895;28;20034;-62
2022/01/22 00:50:08;;;;;;;31.33;3.20;;;;;;;;;;5042858;28;20384;-63
2022/01/22 00:52:34;;;;;;;27.67;3.45;;;;;;;;;;5011304;28;20033;-62
2022/01/22 00:55:00;;;;;;;18.98;2.42;;;;;;;;;;5010049;28;20030;-63
2022/01/22 00:57:26;;;;;;;18.95;2.15;;;;;;;;;;5042673;28;20273;-62
2022/01/22 00:59:54;;;;;;;21.88;2.05;;;;;;;;;;5042791;28;20153;-63
2022/01/22 01:02:20;;;;;;;25.25;2.83;;;;;;;;;;5010863;28;20038;-63
2022/01/22 01:04:46;;;;;;;34.88;3.42;;;;;;;;;;5009986;28;20084;-63
2022/01/22 01:07:12;;;;;;;30.08;4.38;;;;;;;;;;4992473;28;20038;-64
2022/01/22 01:09:39;;;;;;;29.63;3.88;;;;;;;;;;5008724;28;20038;-63
2022/01/22 01:12:09;;;;;;;30.83;3.60;;;;;;;;;;4992091;28;20057;-63
2022/01/22 01:14:52;;;;;;;26.65;2.80;;;;;;;;;;5009300;28;20056;-63
2022/01/22 01:34:14;;;;;;;29.30;2.80;;;;;;;;;;5009860;28;20042;-64
2022/01/22 01:36:41;;;;;;;30.25;2.42;;;;;;;;;;5007741;28;20506;-63
2022/01/22 01:39:11;;;;;;;28.13;3.00;;;;;;;;;;5024233;28;20049;-63
2022/01/22 01:44:03;;;;;;;30.05;2.40;;;;;;;;;;5007917;28;20060;-63
2022/01/22 01:46:32;;;;;;;27.67;2.13;;;;;;;;;;5008510;28;20510;-62
2022/01/22 01:48:58;;;;;;;23.52;2.35;;;;;;;;;;5008251;28;20510;-63
2022/01/22 01:51:28;;;;;;;25.02;2.22;;;;;;;;;;5007658;28;20111;-61
2022/01/22 01:54:02;;;;;;;24.98;2.78;;;;;;;;;;5007596;28;20077;-63
2022/01/22 01:59:13;;;;;;;22.77;2.08;;;;;;;;;;5039016;28;20244;-64
2022/01/22 02:01:39;;;;;;;25.33;2.15;;;;;;;;;;5006282;28;20046;-63
2022/01/22 02:04:08;;;;;;;25.48;1.88;;;;;;;;;;4991350;28;20051;-63
2022/01/22 02:06:36;;;;;;;23.80;1.58;;;;;;;;;;5041479;28;20050;-63
2022/01/22 02:09:08;;;;;;;15.27;1.27;;;;;;;;;;5007748;28;20041;-63
2022/01/22 02:11:36;;;;;;;13.77;1.13;;;;;;;;;;5024366;28;20045;-63
2022/01/22 02:23:29;;;;;;;8.75;1.30;;;;;;;;;;5007218;28;20060;-63
2022/01/22 02:25:04;;;;;;;23.23;2.15;;;;;;;;;;5040907;28;20116;-63
2022/01/22 02:27:32;;;;;;;19.23;1.70;;;;;;;;;;5040418;28;20128;-62
2022/01/22 02:29:58;;;;;;;18.90;1.38;;;;;;;;;;4991585;28;20297;-63
2022/01/22 02:35:28;;;;;;;26.85;2.33;;;;;;;;;;5039444;28;20057;-63
2022/01/22 02:38:06;;;;;;;25.20;1.25;;;;;;;;;;5038815;28;20104;-63
2022/01/22 02:40:41;;;;;;;15.07;0.93;;;;;;;;;;5007584;28;20121;-62
2022/01/22 02:43:09;;;;;;;15.35;0.70;;;;;;;;;;5040377;28;20052;-63
2022/01/22 02:45:35;;;;;;;19.58;0.70;;;;;;;;;;5009251;28;20053;-63
2022/01/22 02:48:01;;;;;;;18.30;0.73;;;;;;;;;;5006612;28;20085;-65
2022/01/22 02:50:27;;;;;;;14.65;0.73;;;;;;;;;;5008865;28;20541;-61
2022/01/22 02:52:54;;;;;;;12.88;0.40;;;;;;;;;;5008956;28;20060;-62
2022/01/22 02:55:20;;;;;;;15.40;0.60;;;;;;;;;;5008318;28;20057;-62
2022/01/22 02:57:46;;;;;;;10.85;0.75;;;;;;;;;;4990555;28;20077;-63
2022/01/22 03:00:15;;;;;;;9.40;0.57;;;;;;;;;;5006738;28;20061;-63
2022/01/22 03:02:41;;;;;;;14.45;0.65;;;;;;;;;;5008377;28;20120;-63
2022/01/22 03:05:08;;;;;;;15.63;0.85;;;;;;;;;;5039737;28;20099;-63
2022/01/22 03:07:35;;;;;;;19.60;0.60;;;;;;;;;;5007334;28;20512;-63
2022/01/22 03:10:03;;;;;;;19.90;1.05;;;;;;;;;;5006911;28;20433;-63
2022/01/22 03:27:50;;;;;;;11.90;1.23;;;;;;;;;;5038913;28;20045;-62
2022/01/22 03:30:17;;;;;;;15.55;1.52;;;;;;;;;;5007800;28;20042;-62
2022/01/22 03:32:47;;;;;;;15.00;0.82;;;;;;;;;;5007901;28;20038;-62
2022/01/22 03:35:25;;;;;;;16.40;0.80;;;;;;;;;;5038776;28;20561;-63
2022/01/22 03:37:53;;;;;;;12.27;0.75;;;;;;;;;;5007785;28;20326;-61
2022/01/22 03:40:21;;;;;;;12.20;0.57;;;;;;;;;;5007715;28;20052;-62
2022/01/22 03:42:47;;;;;;;18.13;0.80;;;;;;;;;;4990857;28;20045;-61
2022/01/22 03:45:13;;;;;;;22.65;1.33;;;;;;;;;;5040035;28;20046;-61
2022/01/22 03:47:40;;;;;;;20.60;1.00;;;;;;;;;;5023617;28;20104;-62
2022/01/22 03:50:07;;;;;;;12.18;0.93;;;;;;;;;;5005611;28;20049;-63
2022/01/22 03:52:33;;;;;;;16.92;1.50;;;;;;;;;;5007455;28;20555;-63
2022/01/22 03:54:59;;;;;;;14.40;1.52;;;;;;;;;;5007462;28;20034;-62
2022/01/22 03:57:26;;;;;;;16.73;1.17;;;;;;;;;;5005991;28;20385;-62
2022/01/22 03:59:54;;;;;;;16.25;1.45;;;;;;;;;;5039087;28;20038;-63
2022/01/22 04:04:54;;;;;;;19.15;1.58;;;;;;;;;;5039125;28;20053;-63
2022/01/22 04:09:52;;;;;;;18.15;1.10;;;;;;;;;;5042359;28;20589;-63
2022/01/22 04:12:26;;;;;;;16.70;2.25;;;;;;;;;;5011433;28;20071;-64
2022/01/22 04:14:59;;;;;;;14.07;2.03;;;;;;;;;;4994037;28;20041;-63
2022/01/22 04:25:30;;;;;;;19.95;2.20;;;;;;;;;;5043469;28;20834;-62
2022/01/22 04:27:57;;;;;;;17.00;1.88;;;;;;;;;;5011096;28;20084;-62
2022/01/22 04:30:24;;;;;;;18.92;2.80;;;;;;;;;;5010253;28;20072;-61
2022/01/22 04:32:50;;;;;;;19.15;3.05;;;;;;;;;;5010319;28;20091;-60
2022/01/22 04:35:17;;;;;;;16.20;3.92;;;;;;;;;;5010420;28;20500;-62
2022/01/22 04:37:44;;;;;;;15.65;3.08;;;;;;;;;;5011968;28;20423;-62
2022/01/22 04:40:10;;;;;;;12.77;3.15;;;;;;;;;;5011811;28;20759;-61
2022/01/22 04:42:38;;;;;;;12.57;3.42;;;;;;;;;;5043625;28;20046;-62
2022/01/22 04:45:14;;;;;;;15.55;3.28;;;;;;;;;;5010436;28;20073;-61
2022/01/22 04:47:55;;;;;;;14.82;2.28;;;;;;;;;;5010610;28;20053;-61
2022/01/22 04:55:39;;;;;;;15.32;1.30;;;;;;;;;;5042790;28;20042;-63
2022/01/22 04:58:06;;;;;;;18.50;1.50;;;;;;;;;;5008577;28;20046;-64
2022/01/22 05:00:33;;;;;;;21.67;1.73;;;;;;;;;;5010815;28;20427;-63
2022/01/22 05:03:00;;;;;;;15.18;1.17;;;;;;;;;;5009754;28;20045;-63
2022/01/22 05:05:26;;;;;;;14.13;1.02;;;;;;;;;;4992763;28;20041;-65
2022/01/22 05:07:52;;;;;;;15.32;1.50;;;;;;;;;;5010173;28;20041;-64
2022/01/22 05:10:18;;;;;;;12.65;0.70;;;;;;;;;;5008366;28;20041;-63
2022/01/22 05:12:44;;;;;;;13.88;0.88;;;;;;;;;;5025021;28;20116;-64
2022/01/22 05:15:11;;;;;;;20.50;0.88;;;;;;;;;;4993249;28;20084;-62
2022/01/22 05:17:40;;;;;;;11.10;0.50;;;;;;;;;;5042406;28;20654;-64
2022/01/22 05:20:15;;;;;;;14.85;0.63;;;;;;;;;;5007071;28;20408;-63
2022/01/22 05:25:37;;;;;;;13.15;1.25;;;;;;;;;;5040801;28;20104;-64
2022/01/22 05:38:23;;;;;;;25.08;1.60;;;;;;;;;;5010306;28;20041;-62
2022/01/22 05:40:49;;;;;;;28.38;2.00;;;;;;;;;;5009475;28;20044;-62
2022/01/22 05:43:16;;;;;;;27.00;2.47;;;;;;;;;;5011081;28;20034;-62
2022/01/22 05:45:42;;;;;;;24.25;2.40;;;;;;;;;;5010852;28;20451;-62
2022/01/22 05:48:09;;;;;;;21.23;1.38;;;;;;;;;;5008596;28;20496;-62
2022/01/22 05:50:51;;;;;;;19.42;1.40;;;;;;;;;;5010838;28;20330;-65
2022/01/22 06:01:12;;;;;;;18.23;1.60;;;;;;;;;;5042191;28;20179;-62
2022/01/22 06:03:38;;;;;;;19.35;1.48;;;;;;;;;;5010284;28;20431;-62
2022/01/22 06:06:04;;;;;;;19.80;1.75;;;;;;;;;;5010010;28;20038;-65
2022/01/22 06:08:33;;;;;;;20.80;1.35;;;;;;;;;;5008926;28;20049;-62
2022/01/22 06:11:07;;;;;;;15.18;1.48;;;;;;;;;;4991752;28;20065;-63
2022/01/22 06:13:43;;;;;;;16.90;1.50;;;;;;;;;;4991631;28;20426;-63
2022/01/22 06:16:17;;;;;;;21.20;1.55;;;;;;;;;;4991335;28;20081;-63
2022/01/22 06:18:44;;;;;;;22.17;1.75;;;;;;;;;;5008222;28;20325;-62
2022/01/22 06:21:10;;;;;;;25.55;2.20;;;;;;;;;;5041828;28;20034;-62
2022/01/22 06:23:40;;;;;;;27.13;2.50;;;;;;;;;;5042229;28;20117;-62
2022/01/22 06:26:06;;;;;;;22.45;2.60;;;;;;;;;;5009591;28;20042;-62
2022/01/22 06:28:33;;;;;;;28.40;3.22;;;;;;;;;;5041571;28;20785;-61
2022/01/22 06:30:59;;;;;;;31.45;3.13;;;;;;;;;;5041851;28;20099;-61
2022/01/22 06:33:26;;;;;;;26.35;3.00;;;;;;;;;;5041090;28;20038;-62
2022/01/22 06:35:52;;;;;;;33.65;3.15;;;;;;;;;;5041690;28;20544;-61
2022/01/22 06:38:18;;;;;;;30.60;2.85;;;;;;;;;;5008272;28;20492;-61
2022/01/22 06:43:30;;;;;;;32.80;2.53;;;;;;;;;;5009082;28;20514;-63
2022/01/22 06:45:56;;;;;;;23.42;2.13;;;;;;;;;;5040740;28;20046;-63
2022/01/22 06:48:23;;;;;;;33.47;3.22;;;;;;;;;;4990599;28;20033;-63
2022/01/22 06:50:49;;;;;;;30.42;2.10;;;;;;;;;;5008937;28;20044;-64
2022/01/22 06:53:16;;;;;;;26.88;2.38;;;;;;;;;;5006841;28;20037;-63
2022/01/22 06:55:46;;;;;;;25.08;2.72;;;;;;;;;;5008524;28;20038;-62
2022/01/22 06:58:12;;;;;;;28.95;2.67;;;;;;;;;;5023815;28;20496;-64
2022/01/22 07:00:38;;;;;;;27.33;2.40;;;;;;;;;;5037395;28;20391;-64
2022/01/22 07:03:05;;;;;;;24.85;2.83;;;;;;;;;;5007032;28;20050;-62
2022/01/22 07:05:33;;;;;;;16.38;2.08;;;;;;;;;;5040868;28;20038;-62
2022/01/22 07:07:59;;;;;;;11.95;1.27;;;;;;;;;;5040289;28;20503;-63
2022/01/22 07:10:25;;;;;;;11.15;1.00;;;;;;;;;;4990089;28;20046;-63
2022/01/22 07:12:51;;;;;;;7.47;0.90;;;;;;;;;;5023167;28;20403;-63
2022/01/22 07:15:17;;;;;;;12.65;1.05;;;;;;;;;;4990515;28;20092;-63
2022/01/22 07:17:45;;;;;;;14.15;1.20;;;;;;;;;;5021865;28;20054;-63
2022/01/22 07:20:16;;;;;;;9.68;0.80;;;;;;;;;;5006627;28;20129;-62
2022/01/22 07:25:42;;;;;;;9.32;0.60;;;;;;;;;;4994370;28;20046;-63
2022/01/22 07:28:08;;;;;;;7.40;0.75;;;;;;;;;;5040068;28;20125;-62
2022/01/22 07:30:34;;;;;;;8.75;0.65;;;;;;;;;;5024256;28;20046;-63
2022/01/22 07:33:00;;;;;;;11.82;1.23;;;;;;;;;;5008248;28;20534;-63
2022/01/22 07:35:26;;;;;;;14.40;1.70;;;;;;;;;;4991648;28;20396;-62
2022/01/22 07:37:52;;;;;;;15.45;1.50;;;;;;;;;;5009109;28;20036;-62
2022/01/22 07:40:18;;;;;;;20.38;2.28;;;;;;;;;;5007994;28;20046;-63
2022/01/22 07:42:44;;;;;;;19.63;1.10;;;;;;;;;;4991358;28;20061;-63
2022/01/22 07:45:11;;;;;;;13.27;1.25;;;;;;;;;;4974921;28;20037;-63
2022/01/22 07:47:37;;;;;;;16.98;1.30;;;;;;;;;;5007813;28;20046;-63
2022/01/22 07:50:04;;;;;;;15.13;1.23;;;;;;;;;;5007319;28;20567;-63
2022/01/22 07:52:30;;;;;;;14.52;1.10;;;;;;;;;;5007878;28;20056;-63
2022/01/22 07:54:57;;;;;;;16.25;1.73;;;;;;;;;;5007877;28;20068;-63
2022/01/22 07:57:23;;;;;;;18.48;1.70;;;;;;;;;;5041055;28;20119;-63
2022/01/22 07:59:49;;;;;;;18.27;1.88;;;;;;;;;;5008523;28;20149;-62
2022/01/22 08:02:15;;;;;;;14.85;1.38;;;;;;;;;;5024599;28;20046;-63
2022/01/22 08:04:43;;;;;;;9.02;1.13;;;;;;;;;;5040867;28;20108;-62
2022/01/22 08:07:09;;;;;;;10.70;1.30;;;;;;;;;;5039556;28;20496;-62
2022/01/22 08:09:35;;;;;;;8.68;1.17;;;;;;;;;;5040020;28;20049;-62
2022/01/22 08:12:01;;;;;;;12.02;1.45;;;;;;;;;;5023056;28;20087;-62
2022/01/22 08:14:28;;;;;;;11.85;2.00;;;;;;;;;;4990102;28;20061;-63
2022/01/22 08:16:54;;;;;;;16.02;2.08;;;;;;;;;;5039846;28;20089;-62
2022/01/22 08:19:20;;;;;;;11.10;1.50;;;;;;;;;;5039628;28;20086;-63
2022/01/22 08:21:46;;;;;;;12.55;1.45;;;;;;;;;;5040543;28;20482;-61
2022/01/22 08:24:14;;;;;;;6.75;1.02;;;;;;;;;;5006795;28;20459;-63
2022/01/22 08:26:48;;;;;;;10.15;0.80;;;;;;;;;;5006184;28;20034;-63
2022/01/22 08:29:14;;;;;;;8.77;0.90;;;;;;;;;;5007095;28;20609;-62
2022/01/22 08:31:51;;;;;;;16.65;1.05;;;;;;;;;;5007396;28;20176;-61
2022/01/22 08:37:02;;;;;;;17.10;1.10;;;;;;;;;;5038804;28;20132;-63
2022/01/22 08:39:28;;;;;;;15.75;1.25;;;;;;;;;;5005751;28;20046;-63
2022/01/22 08:41:54;;;;;;;14.90;0.90;;;;;;;;;;5008083;28;20079;-63
2022/01/22 08:44:21;;;;;;;15.60;0.80;;;;;;;;;;5005174;28;20046;-61
2022/01/22 08:46:47;;;;;;;11.27;0.80;;;;;;;;;;5004509;28;20038;-62
2022/01/22 08:49:13;;;;;;;9.68;0.50;;;;;;;;;;5006375;28;20053;-62
2022/01/22 08:51:39;;;;;;;16.35;1.02;;;;;;;;;;5007370;28;20052;-61
2022/01/22 08:54:06;;;;;;;17.42;0.95;;;;;;;;;;5040293;28;20041;-62
2022/01/22 08:56:32;;;;;;;9.63;0.63;;;;;;;;;;5043523;28;20104;-61
2022/01/22 08:58:58;;;;;;;10.60;1.15;;;;;;;;;;5044149;28;20073;-61
2022/01/22 09:01:25;;;;;;;22.23;1.40;;;;;;;;;;5010679;28;20460;-61
2022/01/22 09:03:51;;;;;;;15.07;0.60;;;;;;;;;;5010295;28;20052;-61
2022/01/22 09:06:18;;;;;;;15.23;0.70;;;;;;;;;;5012292;28;20042;-61
2022/01/22 09:08:45;;;;;;;16.50;1.02;;;;;;;;;;5043789;28;20042;-60
2022/01/22 09:11:12;;;;;;;16.33;1.38;;;;;;;;;;5007650;28;20084;-61
2022/01/22 09:13:38;;;;;;;17.83;1.42;;;;;;;;;;5012268;28;20133;-62
2022/01/22 09:16:05;;;;;;;12.90;1.08;;;;;;;;;;5043510;28;20601;-62
2022/01/22 09:18:31;;;;;;;16.10;1.15;;;;;;;;;;5043165;28;20053;-61
2022/01/22 09:23:26;;;;;;;15.25;0.88;;;;;;;;;;5009608;28;20050;-62
2022/01/22 09:25:52;;;;;;;23.48;1.40;;;;;;;;;;5041775;28;20041;-63
2022/01/22 09:28:18;;;;;;;18.75;1.08;;;;;;;;;;5009535;28;20515;-62
2022/01/22 09:30:46;;;;;;;16.02;1.13;;;;;;;;;;5042366;28;20053;-63
2022/01/22 09:33:12;;;;;;;18.67;1.60;;;;;;;;;;5009668;28;20064;-62
2022/01/22 09:35:38;;;;;;;16.23;1.15;;;;;;;;;;5042074;28;20046;-63
2022/01/22 09:38:04;;;;;;;17.88;1.80;;;;;;;;;;5010604;28;20030;-61
2022/01/22 09:40:31;;;;;;;12.88;0.95;;;;;;;;;;4995022;28;20045;-62
2022/01/22 09:42:59;;;;;;;10.90;0.60;;;;;;;;;;5010899;28;20042;-63
2022/01/22 09:45:25;;;;;;;12.80;1.13;;;;;;;;;;5009760;28;20369;-64
2022/01/22 09:47:51;;;;;;;7.45;0.40;;;;;;;;;;5042025;28;20041;-63
2022/01/22 09:50:18;;;;;;;10.38;0.50;;;;;;;;;;5042060;28;20073;-63
2022/01/22 09:52:45;;;;;;;6.60;0.52;;;;;;;;;;4992783;28;20444;-62
2022/01/22 09:55:12;;;;;;;10.15;0.40;;;;;;;;;;5010252;28;20407;-61
2022/01/22 09:57:38;;;;;;;11.70;0.40;;;;;;;;;;5042821;28;20487;-62
2022/01/22 10:00:08;;;;;;;8.68;0.50;;;;;;;;;;5025232;28;20046;-62
2022/01/22 10:02:46;;;;;;;7.93;0.50;;;;;;;;;;5042029;28;20042;-63
2022/01/22 10:05:28;;;;;;;9.95;0.40;;;;;;;;;;5009966;28;20029;-63
2022/01/22 10:07:55;;;;;;;7.13;0.45;;;;;;;;;;5009561;28;20044;-63
2022/01/22 10:10:21;;;;;;;8.13;0.20;;;;;;;;;;5011119;28;20046;-62
2022/01/22 10:12:53;;;;;;;4.03;0.20;;;;;;;;;;5009780;28;20488;-62
2022/01/22 10:15:23;;;;;;;3.93;0.10;;;;;;;;;;5009405;28;20033;-61
2022/01/22 10:17:50;;;;;;;4.13;0.20;;;;;;;;;;5008783;28;20050;-62
2022/01/22 10:20:28;;;;;;;3.28;0.20;;;;;;;;;;4993421;28;20396;-62
2022/01/22 10:22:58;;;;;;;4.57;0.20;;;;;;;;;;5009339;28;20112;-62
2022/01/22 10:25:37;;;;;;;5.40;0.50;;;;;;;;;;5010590;28;20038;-63
2022/01/22 10:28:05;;;;;;;4.88;0.20;;;;;;;;;;5010710;28;20053;-62
2022/01/22 10:30:37;;;;;;;5.07;0.30;;;;;;;;;;5026048;28;20157;-63
2022/01/22 10:35:45;;;;;;;3.78;0.17;;;;;;;;;;5009994;28;20054;-63
2022/01/22 10:38:12;;;;;;;5.35;0.30;;;;;;;;;;5008124;28;20578;-63
2022/01/22 10:40:40;;;;;;;4.82;0.20;;;;;;;;;;5025090;28;20049;-63
2022/01/22 10:43:28;;;;;;;3.83;0.20;;;;;;;;;;5026361;28;20124;-61
2022/01/22 10:46:01;;;;;;;1.63;0.20;;;;;;;;;;5010071;28;20038;-62
2022/01/22 10:48:27;;;;;;;4.70;0.28;;;;;;;;;;5009527;28;20054;-63
2022/01/22 10:51:04;;;;;;;6.78;0.20;;;;;;;;;;5009071;28;20089;-63
2022/01/22 10:53:35;;;;;;;6.90;0.55;;;;;;;;;;5008714;28;20080;-62
2022/01/22 10:56:05;;;;;;;4.15;0.63;;;;;;;;;;5009136;28;20046;-62
2022/01/22 10:58:33;;;;;;;6.15;0.30;;;;;;;;;;5006010;28;20132;-62
2022/01/22 11:01:04;;;;;;;4.07;0.45;;;;;;;;;;5007776;28;20041;-62
2022/01/22 11:03:30;;;;;;;4.93;0.40;;;;;;;;;;5008451;28;20113;-63
2022/01/22 11:05:58;;;;;;;6.47;0.30;;;;;;;;;;5009365;28;20456;-63
2022/01/22 11:08:25;;;;;;;5.75;0.40;;;;;;;;;;4992470;28;20099;-63
2022/01/22 11:10:51;;;;;;;5.25;0.30;;;;;;;;;;5009381;28;20153;-62
2022/01/22 11:13:19;;;;;;;7.78;0.30;;;;;;;;;;5009236;28;20515;-62
2022/01/22 11:15:46;;;;;;;7.65;0.50;;;;;;;;;;5008028;28;20422;-63
2022/01/22 11:18:12;;;;;;;5.47;0.30;;;;;;;;;;5006591;28;20064;-63
2022/01/22 11:20:39;;;;;;;4.43;0.30;;;;;;;;;;5040639;28;20052;-63
2022/01/22 11:23:05;;;;;;;3.15;0.40;;;;;;;;;;5008661;28;20038;-64
2022/01/22 11:25:34;;;;;;;4.10;0.20;;;;;;;;;;5008934;28;20176;-63
2022/01/22 11:28:01;;;;;;;5.78;0.30;;;;;;;;;;4990987;28;20041;-62
2022/01/22 11:30:28;;;;;;;4.90;0.40;;;;;;;;;;5007301;28;20053;-62
2022/01/22 11:32:58;;;;;;;6.72;0.57;;;;;;;;;;5023580;28;20041;-62
2022/01/22 11:35:36;;;;;;;5.97;0.73;;;;;;;;;;5040727;28;20069;-62
2022/01/22 11:38:08;;;;;;;8.35;0.70;;;;;;;;;;5006864;28;20451;-63
2022/01/22 11:40:34;;;;;;;7.78;0.60;;;;;;;;;;5007547;28;20688;-62
2022/01/22 11:45:35;;;;;;;;;;;;;;;;;;5009535;28;20046;-63
2022/01/22 11:48:11;;;;;;;8.00;0.50;;;;;;;;;;5007032;28;20290;-62
2022/01/22 11:50:37;;;;;;;12.43;0.80;;;;;;;;;;5023541;28;20107;-63
2022/01/22 11:53:40;;;;;;;8.90;0.60;;;;;;;;;;5009204;28;20049;-63
2022/01/22 11:56:13;;;;;;;8.52;0.80;;;;;;;;;;4932958;28;20050;-63
2022/01/22 11:59:00;;;;;;;5.80;0.65;;;;;;;;;;4979991;28;20424;-63
2022/01/22 12:01:39;;;;;;;11.18;0.77;;;;;;;;;;5006886;28;20046;-62
2022/01/22 12:04:06;;;;;;;7.50;0.65;;;;;;;;;;5006224;28;20052;-62
2022/01/22 12:06:32;;;;;;;11.05;0.90;;;;;;;;;;5007276;28;20038;-62
2022/01/22 12:09:05;;;;;;;6.57;0.75;;;;;;;;;;5005863;28;20096;-63
2022/01/22 12:14:50;;;;;;;8.57;1.05;;;;;;;;;;5039382;28;20467;-62
2022/01/22 12:17:29;;;;;;;12.48;1.10;;;;;;;;;;5006088;28;20073;-62
2022/01/22 12:22:36;;;;;;;11.02;0.57;;;;;;;;;;5007067;28;20045;-62
2022/01/22 12:25:22;;;;;;;15.25;0.80;;;;;;;;;;5007520;28;20673;-62
2022/01/22 12:27:52;;;;;;;9.65;1.05;;;;;;;;;;4989283;28;20042;-62
2022/01/22 12:30:39;;;;;;;8.68;0.47;;;;;;;;;;4992149;28;20057;-63
2022/01/22 12:33:10;;;;;;;13.80;1.38;;;;;;;;;;5009653;28;20046;-65
2022/01/22 12:35:38;;;;;;;9.00;0.80;;;;;;;;;;5009326;28;20095;-64
2022/01/22 12:40:56;;;;;;;7.55;1.20;;;;;;;;;;5011383;28;20081;-63
2022/01/22 12:43:29;;;;;;;9.68;1.00;;;;;;;;;;5009952;28;20393;-63
2022/01/22 12:45:55;;;;;;;;;;;;;;;;;;5011800;28;20044;-63
2022/01/22 12:48:22;;;;;;;9.07;1.00;;;;;;;;;;5009531;28;19917;-63
2022/01/22 12:50:48;;;;;;;12.63;1.00;;;;;;;;;;5043521;28;20041;-62
2022/01/22 12:53:16;;;;;;;11.25;1.40;;;;;;;;;;5011827;28;20411;-62
2022/01/22 12:58:40;;;;;;;9.23;1.48;;;;;;;;;;4999849;28;20064;-62
2022/01/22 13:01:14;;;;;;;10.25;1.67;;;;;;;;;;5010653;28;20066;-61
2022/01/22 13:03:43;;;;;;;13.13;1.92;;;;;;;;;;4995732;28;20038;-62
2022/01/22 13:06:10;;;;;;;13.13;2.70;;;;;;;;;;5011155;28;20033;-62
2022/01/22 13:08:36;;;;;;;11.25;2.03;;;;;;;;;;5042452;28;20050;-62
2022/01/22 13:11:04;;;;;;;12.35;2.33;;;;;;;;;;5010038;28;20404;-62
2022/01/22 13:13:31;;;;;;;18.02;2.45;;;;;;;;;;4992420;28;20042;-62
2022/01/22 13:16:02;;;;;;;10.70;2.45;;;;;;;;;;5010417;28;20041;-63
2022/01/22 13:18:47;;;;;;;15.65;3.10;;;;;;;;;;5041846;28;20404;-63
2022/01/22 13:21:14;;;;;;;12.65;2.40;;;;;;;;;;5009141;28;20034;-63
2022/01/22 13:23:41;;;;;;;14.88;3.13;;;;;;;;;;5008885;28;20042;-62
2022/01/22 13:26:08;;;;;;;16.48;3.33;;;;;;;;;;5008398;28;20038;-63
2022/01/22 13:28:36;;;;;;;24.33;3.30;;;;;;;;;;5041247;28;20070;-63
2022/01/22 13:31:13;;;;;;;16.35;3.20;;;;;;;;;;5008917;28;20531;-62
2022/01/22 13:33:54;;;;;;;21.30;3.95;;;;;;;;;;5009108;28;20045;-61
2022/01/22 13:37:29;;;;;;;21.15;4.88;;;;;;;;;;4990034;28;20049;-63
2022/01/22 13:39:58;;;;;;;19.55;3.85;;;;;;;;;;4992111;28;20454;-64
2022/01/22 13:47:43;;;;;;;19.00;4.97;;;;;;;;;;4970947;28;20046;-63
2022/01/22 13:48:33;;;;;;;17.23;5.03;;;;;;;;;;5039577;28;20380;-63
2022/01/22 13:51:00;;;;;;;16.77;4.53;;;;;;;;;;5008358;28;20479;-63
2022/01/22 13:53:27;;;;;;;24.25;5.28;;;;;;;;;;4992846;28;20038;-62
2022/01/22 13:56:08;;;;;;;22.27;5.15;;;;;;;;;;4989746;28;20491;-61
2022/01/22 13:58:34;;;;;;;22.88;5.35;;;;;;;;;;5041063;28;20050;-61
2022/01/22 14:01:06;;;;;;;17.98;5.03;;;;;;;;;;5040181;28;20034;-63
2022/01/22 14:03:44;;;;;;;23.80;5.50;;;;;;;;;;5042431;28;20423;-63
2022/01/22 14:06:11;;;;;;;16.83;5.45;;;;;;;;;;5009398;28;20133;-61
2022/01/22 14:08:37;;;;;;;28.83;6.22;;;;;;;;;;5009400;28;20088;-61
2022/01/22 14:11:11;;;;;;;27.88;6.07;;;;;;;;;;5042027;28;20108;-62
2022/01/22 14:13:38;;;;;;;19.13;4.78;;;;;;;;;;5008095;28;21217;-62
2022/01/22 14:16:12;;;;;;;22.38;5.10;;;;;;;;;;5024451;28;20034;-62
2022/01/22 14:18:39;;;;;;;19.95;4.63;;;;;;;;;;4991773;28;20060;-62
2022/01/22 14:21:05;;;;;;;20.08;4.60;;;;;;;;;;5042134;28;20046;-62
2022/01/22 14:23:32;;;;;;;20.50;4.25;;;;;;;;;;5043063;28;20109;-62
2022/01/22 14:25:58;;;;;;;16.77;3.85;;;;;;;;;;5025636;28;20048;-62
2022/01/22 14:28:36;;;;;;;15.40;3.25;;;;;;;;;;4991156;28;20120;-61
2022/01/22 14:31:02;;;;;;;15.65;3.25;;;;;;;;;;5009800;28;20399;-61
2022/01/22 14:33:41;;;;;;;11.80;2.55;;;;;;;;;;5010020;28;20045;-62
2022/01/22 14:36:07;;;;;;;14.65;2.63;;;;;;;;;;5008888;28;20046;-63
2022/01/22 14:38:40;;;;;;;16.83;2.72;;;;;;;;;;5009368;28;20057;-63
2022/01/22 14:47:02;;;;;;;14.63;2.47;;;;;;;;;;5009432;28;20400;-61
2022/01/22 14:49:34;;;;;;;12.20;2.83;;;;;;;;;;4992643;28;20054;-61
2022/01/22 14:52:00;;;;;;;12.32;2.35;;;;;;;;;;4992644;28;20051;-61
2022/01/22 14:54:28;;;;;;;17.88;2.22;;;;;;;;;;4976628;28;20050;-62
2022/01/22 14:56:54;;;;;;;14.35;1.27;;;;;;;;;;5008917;28;20056;-62
2022/01/22 14:59:20;;;;;;;13.40;1.70;;;;;;;;;;5008993;28;20105;-61
2022/01/22 15:01:47;;;;;;;12.05;1.55;;;;;;;;;;4993008;28;20045;-63
2022/01/22 15:04:13;;;;;;;13.75;2.10;;;;;;;;;;5010376;28;20487;-62
2022/01/22 15:06:39;;;;;;;14.77;1.95;;;;;;;;;;4992711;28;20523;-62
2022/01/22 15:09:06;;;;;;;13.32;2.10;;;;;;;;;;4992531;28;20045;-62
2022/01/22 15:11:35;;;;;;;19.77;2.03;;;;;;;;;;5008770;28;20073;-61
2022/01/22 15:14:05;;;;;;;16.50;2.20;;;;;;;;;;4976350;28;20104;-63
2022/01/22 15:16:38;;;;;;;14.30;2.05;;;;;;;;;;5008709;28;20111;-62
2022/01/22 15:19:12;;;;;;;17.98;2.90;;;;;;;;;;5008246;28;20061;-63
2022/01/22 15:21:38;;;;;;;15.98;2.20;;;;;;;;;;4977608;28;20265;-63
2022/01/22 15:24:05;;;;;;;15.75;2.20;;;;;;;;;;4992247;28;20129;-62
2022/01/22 15:26:31;;;;;;;12.98;1.70;;;;;;;;;;4992200;28;20045;-63
2022/01/22 15:28:57;;;;;;;14.13;1.77;;;;;;;;;;4992407;28;20038;-62
2022/01/22 15:34:05;;;;;;;11.10;1.77;;;;;;;;;;5008122;28;20535;-61
2022/01/22 15:36:31;;;;;;;10.98;1.33;;;;;;;;;;4992201;28;20057;-62
2022/01/22 15:38:57;;;;;;;19.30;2.13;;;;;;;;;;4992140;28;20104;-62
2022/01/22 15:41:24;;;;;;;12.23;1.77;;;;;;;;;;4975674;28;20073;-62
2022/01/22 15:43:50;;;;;;;12.52;1.60;;;;;;;;;;4976125;28;20508;-61
2022/01/22 15:46:17;;;;;;;12.35;1.70;;;;;;;;;;4992206;28;20046;-61
2022/01/22 15:48:45;;;;;;;15.30;1.88;;;;;;;;;;4991923;28;20584;-62
2022/01/22 15:51:12;;;;;;;14.13;2.90;;;;;;;;;;4992558;28;20049;-62
2022/01/22 15:53:38;;;;;;;7.13;1.33;;;;;;;;;;4977195;28;20058;-62
2022/01/22 15:56:04;;;;;;;14.85;1.70;;;;;;;;;;4975911;28;20084;-62
2022/01/22 15:58:32;;;;;;;9.05;1.42;;;;;;;;;;5009774;28;20046;-63
2022/01/22 16:00:59;;;;;;;12.65;1.70;;;;;;;;;;4992013;28;20403;-61
2022/01/22 16:03:25;;;;;;;10.63;1.58;;;;;;;;;;4991793;28;20053;-62
2022/01/22 16:05:56;;;;;;;13.77;1.85;;;;;;;;;;5010792;28;20038;-62
2022/01/22 16:08:23;;;;;;;9.73;1.50;;;;;;;;;;5012406;28;20046;-62
2022/01/22 16:10:50;;;;;;;10.98;1.52;;;;;;;;;;4995940;28;20504;-61
2022/01/22 16:13:18;;;;;;;11.75;1.48;;;;;;;;;;4996089;28;20060;-61
2022/01/22 16:15:44;;;;;;;9.80;1.55;;;;;;;;;;4995833;28;20042;-62
2022/01/22 16:18:10;;;;;;;12.35;1.95;;;;;;;;;;4995209;28;20423;-61
2022/01/22 16:20:37;;;;;;;13.25;1.85;;;;;;;;;;4995380;28;20054;-63
2022/01/22 16:23:03;;;;;;;10.43;1.23;;;;;;;;;;5012906;28;20081;-61
2022/01/22 16:25:29;;;;;;;14.60;2.40;;;;;;;;;;4995475;28;20104;-61
2022/01/22 16:27:55;;;;;;;14.20;1.60;;;;;;;;;;4995568;28;20544;-61
2022/01/22 16:30:21;;;;;;;15.63;2.25;;;;;;;;;;4979445;28;20137;-61
2022/01/22 16:32:47;;;;;;;16.75;1.88;;;;;;;;;;4995516;28;20049;-61
2022/01/22 16:35:14;;;;;;;18.65;3.15;;;;;;;;;;4996004;28;20467;-61
2022/01/22 16:37:41;;;;;;;15.40;2.83;;;;;;;;;;5012145;28;20462;-61
2022/01/22 16:40:13;;;;;;;12.45;1.88;;;;;;;;;;4995245;28;20041;-62
2022/01/22 16:42:47;;;;;;;18.83;1.83;;;;;;;;;;4995723;28;20152;-62
2022/01/22 16:56:30;;;;;;;14.38;2.85;;;;;;;;;;5011328;28;20046;-63
2022/01/22 16:58:58;;;;;;;17.65;2.53;;;;;;;;;;5011304;28;20044;-62
2022/01/22 17:01:36;;;;;;;18.48;2.20;;;;;;;;;;4995218;28;20368;-62